Latest Weather Observations for Applethorpe

IDN60801

Issued at 5:23 pm EDT Monday 25 October 2021 (issued every 10 minutes, with the page automatically refreshed every 10 minutes)

About weather observations | Map of weather stations | Latest weather observations for NSW | Other Formats
Station Details ID: 041175 Name: APPLETHORPE Lat: -28.62 Lon: 151.95 Height: 871.6 m
Data from the previous 72 hours. | See also: Recent months at Applethorpe
Date/Time
EDT
Temp
°C
App
Temp
°C
Dew
Point
°C
Rel
Hum
%
Delta-T
°C
Wind Press
QNH
hPa
Press
MSL
hPa
Rain since
9am
mm
Dir  Spd
km/h
Gust
km/h
Spd
kts
Gust
kts
25/05:00pm 19.1 17.4 11.2 60 4.5 WSW 11 17 6 9 1016.3 1013.5 4.0
25/04:30pm 19.4 17.9 11.9 62 4.3 WSW 11 17 6 9 1016.2 1013.4 4.0
25/04:00pm 19.2 17.4 12.2 64 4.1 WSW 13 19 7 10 1016.6 1013.9 4.0
25/03:30pm 19.6 19.1 13.8 69 3.5 W 9 17 5 9 1016.8 1014.1 4.0
25/03:00pm 18.6 17.9 13.2 71 3.2 W 9 19 5 10 1017.2 1014.4 4.0
25/02:30pm 17.3 16.2 13.2 77 2.4 SW 11 17 6 9 1017.8 1015.1 4.0
25/02:00pm 16.4 16.5 13.9 85 1.5 SW 6 11 3 6 1018.3 1015.6 4.0
25/01:30pm 14.7 14.4 12.6 87 1.2 WSW 6 11 3 6 1019.1 1016.4 4.0
25/01:00pm 14.2 13.7 12.1 87 1.2 W 6 13 3 7 1019.0 1016.3 3.8
25/12:30pm 14.8 13.5 12.5 86 1.3 W 11 24 6 13 1019.7 1017.0 3.0
25/12:00pm 14.6 13.4 12.8 89 1.0 WSW 11 17 6 9 1019.2 1016.5 3.0
25/11:30am 13.4 13.0 11.1 86 1.3 NW 4 7 2 4 1019.3 1016.6 2.4
25/11:00am 13.8 13.1 11.3 85 1.4 W 6 11 3 6 1020.1 1017.4 1.0
25/10:30am 15.0 14.1 11.2 78 2.1 WSW 7 13 4 7 1019.9 1017.2 0.0
25/10:00am 14.8 14.0 11.8 82 1.7 SSW 7 13 4 7 1019.9 1017.2 2.2
25/09:30am 14.5 14.3 12.9 90 0.9 SSW 6 9 3 5 1020.0 1017.3 2.2
25/09:00am 14.6 15.4 12.6 88 1.1 CALM 0 4 0 2 1019.4 1016.7 2.2
25/08:30am 14.2 13.9 12.8 91 0.8 S 6 7 3 4 1019.4 1016.7 2.2
25/08:00am 14.5 15.6 13.4 93 0.6 CALM 0 2 0 1 1019.9 1017.2 2.0
25/07:30am 14.2 14.8 13.1 93 0.6 ENE 2 4 1 2 1018.8 1016.1 2.0
25/07:00am 14.1 14.3 13.0 93 0.6 NNE 4 6 2 3 1018.9 1016.2 1.6
25/06:30am 13.9 13.6 12.8 93 0.6 N 6 7 3 4 1018.5 1015.7 1.6
25/06:00am 13.4 13.6 11.8 90 0.9 ENE 2 4 1 2 1017.5 1014.7 1.6
25/05:30am 13.0 12.3 11.4 90 0.9 ENE 6 13 3 7 1016.8 1014.1 1.4
25/05:00am 12.9 12.6 11.5 91 0.8 ENE 4 6 2 3 1016.9 1014.2 1.4
25/04:30am 12.4 12.5 10.3 87 1.1 CALM 0 2 0 1 1017.2 1014.4 1.4
25/04:00am 12.4 12.1 10.0 85 1.3 NNE 2 4 1 2 1017.4 1014.6 1.2
25/03:30am 12.6 11.7 9.2 80 1.8 NE 4 6 2 3 1017.2 1014.4 0.4
25/03:00am 13.0 11.6 8.9 76 2.2 SSW 6 9 3 5 1016.8 1014.1 0.0
25/02:30am 14.1 12.9 7.9 66 3.2 SW 4 7 2 4 1017.6 1014.9 0.0
25/02:00am 14.5 12.7 7.1 61 3.8 SSW 6 7 3 4 1018.1 1015.4 0.0
25/01:30am 14.0 12.7 7.8 66 3.2 SW 4 7 2 4 1018.8 1016.1 0.0
25/01:00am 14.1 12.6 6.7 61 3.8 SW 4 4 2 2 1018.9 1016.2 0.0
25/12:30am 13.4 12.1 5.8 60 3.8 SSW 2 6 1 3 1019.1 1016.4 0.0
25/12:00am 14.9 12.6 4.9 51 4.9 SW 6 7 3 4 1019.3 1016.6 0.0
 
Date/Time
EDT
Temp
°C
App
Temp
°C
Dew
Point
°C
Rel
Hum
%
Delta-T
°C
Wind Press
QNH
hPa
Press
MSL
hPa
Rain since
9am
mm
Dir  Spd
km/h
Gust
km/h
Spd
kts
Gust
kts
24/11:30pm 15.8 13.5 4.8 48 5.4 WSW 6 9 3 5 1019.2 1016.5 0.0
24/11:00pm 15.3 13.4 6.8 57 4.4 WSW 6 7 3 4 1019.3 1016.6 0.0
24/10:30pm 15.5 13.4 6.0 53 4.8 W 6 7 3 4 1019.3 1016.6 0.0
24/10:00pm 15.3 13.7 7.8 61 3.9 W 6 9 3 5 1019.3 1016.6 0.0
24/09:30pm 14.2 12.7 6.6 60 3.9 W 4 6 2 3 1019.1 1016.4 0.0
24/09:00pm 15.9 14.1 5.5 50 5.2 WSW 4 6 2 3 1018.7 1016.0 0.0
24/08:30pm 18.1 16.0 5.7 44 6.3 WSW 6 7 3 4 1018.6 1015.9 0.0
24/08:00pm 19.0 16.8 5.5 41 6.9 WSW 6 7 3 4 1018.1 1015.4 0.0
24/07:30pm 20.5 17.6 4.9 36 8.0 WSW 9 17 5 9 1017.8 1015.1 0.0
24/07:00pm 21.1 18.8 5.5 36 8.1 WSW 7 11 4 6 1017.7 1015.0 0.0
24/06:30pm 22.8 19.3 5.3 32 9.1 W 13 24 7 13 1017.3 1014.5 0.0
24/06:00pm 23.6 20.1 5.5 31 9.5 W 13 22 7 12 1016.8 1014.1 0.0
24/05:30pm 24.2 20.7 5.5 30 9.9 W 13 24 7 13 1016.7 1014.0 0.0
24/05:00pm 24.5 20.7 5.8 30 9.9 WSW 15 26 8 14 1016.6 1013.9 0.0
24/04:30pm 24.8 21.6 7.0 32 9.7 WSW 13 30 7 16 1016.5 1013.7 0.0
24/04:00pm 24.9 21.1 7.5 33 9.6 WSW 17 32 9 17 1016.5 1013.7 0.0
24/03:30pm 24.4 20.3 6.2 31 9.8 W 17 26 9 14 1016.6 1013.9 0.0
24/03:00pm 24.4 20.7 6.2 31 9.7 W 15 30 8 16 1016.6 1013.9 0.0
24/02:30pm 23.5 18.7 5.4 31 9.5 W 20 33 11 18 1016.8 1014.1 0.0
24/02:00pm 22.8 19.5 6.6 35 8.7 WSW 13 28 7 15 1017.0 1014.3 0.0
24/01:30pm 23.2 17.8 4.7 30 9.6 W 22 35 12 19 1017.4 1014.6 0.0
24/01:00pm 22.8 18.6 8.1 39 8.1 WSW 20 32 11 17 1017.4 1014.6 0.0
24/12:30pm 22.6 18.9 9.4 43 7.4 WSW 19 32 10 17 1017.6 1014.9 0.0
24/12:00pm 22.2 18.2 8.3 41 7.6 W 19 32 10 17 1017.9 1015.2 0.0
24/11:30am 21.8 18.0 7.6 40 7.7 WSW 17 30 9 16 1018.1 1015.4 0.0
24/11:00am 21.0 16.8 7.6 42 7.2 WSW 19 32 10 17 1018.1 1015.4 0.0
24/10:30am 21.1 17.2 9.4 47 6.5 WSW 20 35 11 19 1018.1 1015.4 0.0
24/10:00am 20.4 17.4 10.8 54 5.5 WSW 17 30 9 16 1018.6 1015.9 13.2
24/09:30am 20.0 17.9 12.5 62 4.4 WSW 15 26 8 14 1018.5 1015.7 13.2
24/09:00am 19.4 18.0 13.3 68 3.6 WSW 13 20 7 11 1018.5 1015.7 13.2
24/08:30am 18.5 17.3 12.9 70 3.3 W 11 19 6 10 1018.2 1015.5 13.2
24/08:00am 18.2 16.9 12.4 69 3.4 WSW 11 20 6 11 1018.1 1015.4 13.2
24/07:30am 17.7 17.2 12.8 73 2.9 W 7 13 4 7 1017.5 1014.7 13.2
24/07:00am 14.2 14.1 12.1 87 1.2 W 4 7 2 4 1017.3 1014.5 13.2
24/06:30am 12.3 12.3 9.9 85 1.3 CALM 0 2 0 1 1016.9 1014.2 13.2
24/06:00am 13.6 13.5 9.5 76 2.2 CALM 0 0 0 0 1016.7 1014.0 13.2
24/05:30am 16.2 15.0 10.3 68 3.3 W 7 13 4 7 1016.6 1013.9 13.2
24/05:00am 16.6 14.7 10.5 67 3.4 W 11 19 6 10 1016.6 1013.9 13.2
24/04:30am 17.5 16.4 11.8 69 3.3 W 9 17 5 9 1016.4 1013.6 13.2
24/04:00am 17.7 17.1 12.2 70 3.2 W 7 13 4 7 1016.3 1013.5 13.2
24/03:30am 17.5 17.4 13.8 79 2.2 WNW 7 13 4 7 1016.0 1013.2 13.2
24/03:00am 18.0 18.2 14.7 81 2.0 WNW 7 11 4 6 1015.8 1013.1 13.2
24/02:30am 17.8 18.4 15.4 86 1.5 WNW 6 11 3 6 1016.0 1013.2 13.2
24/02:00am 18.2 19.5 16.2 88 1.2 NW 4 7 2 4 1016.1 1013.3 13.0
24/01:30am 18.2 19.6 16.5 90 1.1 NW 4 9 2 5 1016.0 1013.2 13.0
24/01:00am 17.5 19.0 15.8 90 1.0 NNW 2 7 1 4 1016.3 1013.5 13.0
24/12:30am 18.2 20.0 16.4 89 1.1 WNW 2 4 1 2 1016.6 1013.9 13.0
24/12:00am 19.1 20.8 17.2 89 1.2 NW 4 9 2 5 1016.8 1014.1 13.0
 
Date/Time
EDT
Temp
°C
App
Temp
°C
Dew
Point
°C
Rel
Hum
%
Delta-T
°C
Wind Press
QNH
hPa
Press
MSL
hPa
Rain since
9am
mm
Dir  Spd
km/h
Gust
km/h
Spd
kts
Gust
kts
23/11:30pm 19.6 20.7 18.1 91 1.0 NNW 9 13 5 7 1016.7 1014.0 13.0
23/11:00pm 16.4 17.4 15.3 93 0.7 NE 4 13 2 7 1016.6 1013.9 13.0
23/10:30pm 16.4 17.3 15.1 92 0.8 NE 4 6 2 3 1017.0 1014.3 13.0
23/10:00pm 17.4 18.4 16.4 94 0.6 NE 6 7 3 4 1017.2 1014.4 13.0
23/09:30pm 17.1 18.0 16.1 94 0.6 ENE 6 9 3 5 1017.0 1014.3 13.0
23/09:00pm 16.8 17.6 15.8 94 0.6 ENE 6 9 3 5 1016.6 1013.9 13.0
23/08:30pm 16.4 17.0 15.3 93 0.7 NE 6 7 3 4 1016.0 1013.2 13.0
23/08:00pm 16.4 17.7 15.1 92 0.8 ESE 2 2 1 1 1015.6 1012.9 13.0
23/07:30pm 16.6 17.2 15.3 92 0.8 NNE 6 9 3 5 1015.3 1012.5 13.0
23/07:00pm 17.0 17.5 15.5 91 0.9 NE 7 11 4 6 1015.7 1013.0 13.0
23/06:30pm 16.8 17.8 15.3 91 0.9 ESE 4 7 2 4 1015.8 1013.1 13.0
23/06:00pm 17.0 15.3 14.6 86 1.4 NNW 17 44 9 24 1014.9 1012.1 12.8
23/05:49pm 17.4 13.3 10.1 62 4.0 N 22 80 12 43 1015.8 1013.1 1.8
23/05:47pm 22.4 20.7 13.7 58 5.3 N 15 80 8 43 1015.5 1012.8 0.2
23/05:30pm 25.3 26.0 15.6 55 6.1 NNE 6 9 3 5 1014.3 1011.5 0.0
23/05:00pm 26.8 26.5 15.5 50 7.1 N 11 20 6 11 1014.8 1012.0 0.0
23/04:30pm 26.5 27.1 15.8 51 6.8 NNW 7 13 4 7 1015.5 1012.8 0.0
23/04:00pm 27.0 26.4 14.7 47 7.7 NNW 11 22 6 12 1015.6 1012.9 0.0
23/03:30pm 28.0 27.4 15.6 46 7.9 NNW 13 22 7 12 1016.0 1013.2 0.0
23/03:00pm 27.7 27.5 16.6 50 7.1 N 13 20 7 11 1016.2 1013.4 0.0
23/02:30pm 27.0 26.6 16.3 52 6.8 NNW 13 22 7 12 1016.4 1013.6 0.0
23/02:00pm 26.7 27.2 16.6 54 6.5 NNW 9 17 5 9 1016.9 1014.2 0.0
23/01:30pm 26.8 26.7 17.0 55 6.3 NNW 13 22 7 12 1017.2 1014.4 0.0
23/01:00pm 25.9 25.4 15.9 54 6.3 NNW 13 24 7 13 1017.5 1014.7 0.0
23/12:30pm 25.6 25.6 16.2 56 6.0 N 11 17 6 9 1017.7 1015.0 0.0
23/12:00pm 24.8 25.0 15.7 57 5.7 NNW 9 20 5 11 1018.5 1015.7 0.0
23/11:30am 24.3 25.0 17.1 64 4.6 NNW 9 17 5 9 1019.0 1016.3 0.0
23/11:00am 23.3 24.1 16.4 65 4.4 NW 7 15 4 8 1019.5 1016.8 0.0
23/10:30am 22.2 21.5 15.5 66 4.2 NNW 13 28 7 15 1019.8 1017.1 0.0
23/10:00am 22.0 22.8 17.2 74 3.1 NNW 9 19 5 10 1020.0 1017.3 0.0
23/09:30am 20.4 19.1 15.8 75 2.9 N 17 26 9 14 1020.0 1017.3 0.0
23/09:00am 20.2 19.7 16.0 77 2.6 N 13 20 7 11 1019.7 1017.0 0.0
23/08:30am 19.2 18.8 16.1 82 1.9 N 13 19 7 10 1019.8 1017.1 0.0
23/08:00am 18.0 17.9 16.0 88 1.2 N 11 20 6 11 1019.8 1017.1 0.0
23/07:30am 17.3 17.7 16.2 93 0.7 N 9 17 5 9 1019.8 1017.1 0.0
23/07:00am 16.8 17.1 16.0 95 0.5 N 9 15 5 8 1019.7 1017.0 0.0
23/06:30am 15.9 16.3 15.3 96 0.4 N 7 13 4 7 1019.4 1016.7 0.0
23/06:00am 14.1 14.3 13.1 94 0.6 NE 4 6 2 3 1018.8 1016.1 0.0
23/05:30am 13.9 14.4 12.8 93 0.6 NE 2 4 1 2 1018.2 1015.5 0.0
23/05:00am 13.9 14.7 12.6 92 0.7 CALM 0 0 0 0 1018.0 1015.3 0.0
23/04:30am 14.2 15.0 12.6 90 0.9 CALM 0 0 0 0 1017.7 1015.0 0.0
23/04:00am 14.9 15.6 13.3 90 0.9 NE 2 4 1 2 1017.5 1014.7 0.0
23/03:30am 15.6 16.1 14.0 90 0.9 NE 4 6 2 3 1017.3 1014.5 0.0
23/03:00am 16.1 16.4 14.5 90 1.0 NE 6 13 3 7 1017.4 1014.6 0.0
23/02:30am 16.7 17.0 14.9 89 1.1 NE 7 17 4 9 1017.8 1015.1 0.0
23/02:00am 16.8 17.2 15.2 90 1.0 NE 7 13 4 7 1018.0 1015.3 0.0
23/01:30am 16.7 17.1 15.2 91 0.9 NE 7 15 4 8 1018.6 1015.9 0.0
23/01:00am 16.5 16.8 15.0 91 0.9 NE 7 15 4 8 1018.8 1016.1 0.0
23/12:30am 16.6 16.9 15.1 91 0.9 NE 7 15 4 8 1018.9 1016.2 0.0
23/12:00am 16.5 16.9 15.2 92 0.8 ENE 7 13 4 7 1019.0 1016.3 0.0
 
Date/Time
EDT
Temp
°C
App
Temp
°C
Dew
Point
°C
Rel
Hum
%
Delta-T
°C
Wind Press
QNH
hPa
Press
MSL
hPa
Rain since
9am
mm
Dir  Spd
km/h
Gust
km/h
Spd
kts
Gust
kts
22/11:30pm 16.4 17.0 15.3 93 0.7 ENE 6 15 3 8 1019.0 1016.3 0.0
22/11:00pm 16.1 16.4 15.0 93 0.7 ENE 7 13 4 7 1018.9 1016.2 0.0
22/10:30pm 15.3 15.7 13.8 91 0.9 ENE 4 7 2 4 1018.9 1016.2 0.0
22/10:00pm 15.3 15.6 13.5 89 1.0 ENE 4 6 2 3 1018.8 1016.1 0.0
22/09:30pm 15.7 16.6 13.9 89 1.1 ENE 2 6 1 3 1018.7 1016.0 0.0
22/09:00pm 16.0 16.5 14.0 88 1.2 NE 4 7 2 4 1018.6 1015.9 0.0
22/08:30pm 16.5 16.6 14.0 85 1.5 NE 6 9 3 5 1018.3 1015.6 0.0
22/08:00pm 17.3 17.3 13.6 79 2.2 ENE 6 9 3 5 1017.9 1015.2 0.0
22/07:30pm 18.7 18.6 13.3 71 3.2 ENE 6 11 3 6 1017.4 1014.6 0.0
22/07:00pm 21.0 21.0 12.4 58 5.0 ENE 4 9 2 5 1016.9 1014.2 0.0
22/06:30pm 24.4 24.6 10.7 42 7.9 CALM 0 0 0 0 1016.4 1013.6 0.0

Other formats

Comma delimited format used in spreadsheet applications
http://www.bom.gov.au/fwo/IDN60801/IDN60801.94553.axf

JavaScript Object Notation format (JSON) in row-major order
http://www.bom.gov.au/fwo/IDN60801/IDN60801.94553.json

Data quality

Most of these data are generated automatically and are frequently updated. Quality checks on data are not normally performed. It is possible for incorrect values to appear. Refer to information at About Latest Weather Observations and please check the disclaimer before using these data.